createdAt,value
2023-02-11T00:01:56.521Z,79.58
2023-02-11T00:04:23.193Z,79.62
2023-02-11T00:06:56.615Z,78.85
2023-02-11T00:09:31.796Z,79.00
2023-02-11T00:15:16.507Z,79.77
2023-02-11T00:17:49.934Z,79.64
2023-02-11T00:20:52.065Z,79.97
2023-02-11T00:23:19.348Z,79.39
2023-02-11T00:28:28.550Z,78.97
2023-02-11T00:31:39.759Z,79.63
2023-02-11T00:34:06.561Z,79.92
2023-02-11T00:36:50.494Z,79.38
2023-02-11T00:39:20.284Z,78.97
2023-02-11T00:42:05.258Z,79.11
2023-02-11T00:44:38.756Z,78.96
2023-02-11T00:47:11.546Z,78.91
2023-02-11T00:49:56.322Z,78.87
2023-02-11T00:52:46.506Z,78.55
2023-02-11T00:55:30.038Z,78.90
2023-02-11T00:58:13.290Z,78.79
2023-02-11T01:00:40.414Z,79.01
2023-02-11T01:06:11.421Z,79.12
2023-02-11T01:08:45.602Z,78.87
2023-02-11T01:11:15.719Z,78.63
2023-02-11T01:13:49.547Z,78.98
2023-02-11T01:16:20.205Z,79.16
2023-02-11T01:18:54.577Z,78.30
2023-02-11T01:21:27.598Z,78.17
2023-02-11T01:24:00.575Z,78.97
2023-02-11T01:26:27.337Z,79.13
2023-02-11T01:29:02.000Z,78.98
2023-02-11T01:31:38.684Z,79.26
2023-02-11T01:34:14.553Z,79.04
2023-02-11T01:36:41.967Z,79.18
2023-02-11T01:39:15.523Z,79.46
2023-02-11T01:42:23.990Z,78.96
2023-02-11T01:45:04.515Z,79.12
2023-02-11T01:47:31.178Z,79.17
2023-02-11T01:50:11.575Z,79.24
2023-02-11T01:52:51.892Z,79.24
2023-02-11T01:55:46.693Z,79.01
2023-02-11T01:58:20.590Z,78.96
2023-02-11T02:00:56.885Z,79.20
2023-02-11T02:03:42.010Z,79.08
2023-02-11T02:06:43.590Z,79.37
2023-02-11T02:09:18.638Z,79.47
2023-02-11T02:11:55.570Z,79.69
2023-02-11T02:14:22.414Z,79.59
2023-02-11T02:20:27.511Z,79.55
2023-02-11T02:23:10.486Z,79.96
2023-02-11T02:26:16.504Z,79.68
2023-02-11T02:29:35.585Z,80.19
2023-02-11T02:32:52.564Z,80.05
2023-02-11T02:35:43.561Z,80.10
2023-02-11T02:38:26.654Z,80.18
2023-02-11T02:41:34.174Z,80.08
2023-02-11T02:44:21.610Z,80.43
2023-02-11T02:46:56.857Z,80.47
2023-02-11T02:50:05.102Z,80.39
2023-02-11T02:53:14.670Z,80.10
2023-02-11T02:56:22.202Z,80.14
2023-02-11T02:59:33.679Z,80.57
2023-02-11T03:03:10.523Z,80.39
2023-02-11T03:05:56.937Z,80.32
2023-02-11T03:08:33.604Z,80.84
2023-02-11T03:11:09.558Z,80.79
2023-02-11T03:13:45.536Z,80.78
2023-02-11T03:16:38.176Z,80.67
2023-02-11T03:19:51.528Z,81.25
2023-02-11T03:22:33.915Z,81.29
2023-02-11T03:25:11.567Z,81.10
2023-02-11T03:27:53.187Z,81.11
2023-02-11T03:30:39.574Z,81.24
2023-02-11T03:33:18.341Z,81.22
2023-02-11T03:36:06.594Z,81.47
2023-02-11T03:38:46.073Z,81.20
2023-02-11T03:44:30.586Z,81.46
2023-02-11T03:47:18.530Z,81.19
2023-02-11T03:49:56.922Z,81.74
2023-02-11T03:52:41.625Z,81.52
2023-02-11T03:55:21.361Z,81.48
2023-02-11T03:57:58.654Z,81.57
2023-02-11T04:00:41.214Z,81.88
2023-02-11T04:03:18.046Z,81.79
2023-02-11T04:05:48.565Z,81.85
2023-02-11T04:08:30.362Z,81.79
2023-02-11T04:10:57.112Z,81.87
2023-02-11T04:13:30.603Z,82.21
2023-02-11T04:15:57.225Z,81.65
2023-02-11T04:18:30.681Z,81.80
2023-02-11T04:20:57.338Z,81.86
2023-02-11T04:23:24.222Z,81.91
2023-02-11T04:25:57.571Z,81.67
2023-02-11T04:31:24.456Z,82.09
2023-02-11T04:33:51.322Z,82.05
2023-02-11T04:36:35.057Z,81.87
2023-02-11T04:39:01.924Z,82.12
2023-02-11T04:41:34.617Z,82.35
2023-02-11T04:44:21.606Z,82.37
2023-02-11T04:47:04.655Z,82.06
2023-02-11T04:49:51.669Z,82.30
2023-02-11T04:52:24.597Z,82.37
2023-02-11T04:54:51.436Z,82.28
2023-02-11T04:57:30.743Z,82.35
2023-02-11T04:59:57.433Z,82.12
2023-02-11T05:02:30.612Z,82.37
2023-02-11T05:05:02.278Z,82.53
2023-02-11T05:07:29.202Z,82.86
2023-02-11T05:10:04.753Z,82.94
2023-02-11T05:12:31.503Z,82.70
2023-02-11T05:15:04.689Z,82.82
2023-02-11T05:17:31.427Z,82.65
2023-02-11T05:20:04.646Z,82.51
2023-02-11T05:22:31.253Z,82.29
2023-02-11T05:25:12.165Z,82.70
2023-02-11T05:27:44.545Z,82.78
2023-02-11T05:30:20.087Z,82.61
2023-02-11T05:32:46.902Z,82.87
2023-02-11T05:35:26.426Z,82.77
2023-02-11T05:37:53.060Z,83.26
2023-02-11T05:40:29.551Z,82.70
2023-02-11T05:42:56.247Z,82.83
2023-02-11T05:45:41.588Z,83.18
2023-02-11T05:48:14.756Z,83.03
2023-02-11T05:50:43.999Z,83.20
2023-02-11T05:53:20.632Z,83.22
2023-02-11T05:55:56.187Z,83.29
2023-02-11T05:58:29.722Z,83.50
2023-02-11T06:01:03.552Z,83.64
2023-02-11T06:03:42.476Z,84.03
2023-02-11T06:06:23.225Z,83.63
2023-02-11T06:08:58.558Z,83.58
2023-02-11T06:11:27.809Z,83.65
2023-02-11T06:14:00.616Z,83.76
2023-02-11T06:16:30.244Z,83.88
2023-02-11T06:19:03.623Z,83.96
2023-02-11T06:24:59.756Z,84.40
2023-02-11T06:27:29.712Z,84.24
2023-02-11T06:30:03.647Z,84.21
2023-02-11T06:32:43.459Z,83.82
2023-02-11T06:35:30.112Z,84.29
2023-02-11T06:37:56.924Z,84.22
2023-02-11T06:40:33.020Z,84.42
2023-02-11T06:43:09.356Z,84.44
2023-02-11T06:45:50.095Z,84.65
2023-02-11T06:48:16.969Z,84.71
2023-02-11T06:50:49.689Z,84.43
2023-02-11T06:53:25.691Z,84.59
2023-02-11T06:55:52.787Z,85.01
2023-02-11T06:58:26.073Z,84.76
2023-02-11T07:00:57.815Z,84.98
2023-02-11T07:03:31.798Z,84.75
2023-02-11T07:06:02.956Z,84.68
2023-02-11T07:14:24.005Z,85.06
2023-02-11T07:16:50.587Z,84.55
2023-02-11T07:19:23.716Z,84.91
2023-02-11T07:22:16.482Z,85.05
2023-02-11T07:24:53.681Z,84.83
2023-02-11T07:27:30.870Z,84.76
2023-02-11T07:30:07.256Z,85.25
2023-02-11T07:32:34.146Z,85.48
2023-02-11T07:35:10.336Z,85.25
2023-02-11T07:37:37.215Z,85.18
2023-02-11T07:40:17.706Z,85.12
2023-02-11T07:42:44.394Z,85.42
2023-02-11T07:45:33.751Z,85.66
2023-02-11T07:48:13.661Z,85.33
2023-02-11T07:50:40.341Z,85.58
2023-02-11T07:53:13.802Z,85.46
2023-02-11T07:55:40.580Z,85.68
2023-02-11T07:58:16.679Z,85.71
2023-02-11T08:00:43.499Z,85.50
2023-02-11T08:03:30.086Z,85.73
2023-02-11T08:06:16.597Z,85.16
2023-02-11T08:08:49.747Z,85.21
2023-02-11T08:14:06.697Z,85.14
2023-02-11T08:19:30.566Z,85.15
2023-02-11T08:21:57.590Z,85.27
2023-02-11T08:24:30.685Z,85.21
2023-02-11T08:26:57.351Z,85.38
2023-02-11T08:29:36.764Z,85.26
2023-02-11T08:32:09.294Z,85.19
2023-02-11T08:34:44.664Z,85.55
2023-02-11T08:37:22.967Z,85.40
2023-02-11T08:39:58.722Z,85.54
2023-02-11T08:42:34.231Z,85.84
2023-02-11T08:45:18.859Z,85.98
2023-02-11T08:48:19.487Z,85.66
2023-02-11T08:50:59.719Z,85.46
2023-02-11T08:53:29.337Z,85.57
2023-02-11T08:55:56.073Z,85.58
2023-02-11T08:58:29.791Z,85.73
2023-02-11T09:00:59.624Z,85.46
2023-02-11T09:03:43.868Z,85.49
2023-02-11T09:06:12.330Z,85.50
2023-02-11T09:08:48.785Z,85.68
2023-02-11T09:11:48.342Z,85.88
2023-02-11T09:14:27.742Z,85.79
2023-02-11T09:16:57.867Z,85.51
2023-02-11T09:19:31.743Z,85.69
2023-02-11T09:21:59.161Z,85.62
2023-02-11T09:24:32.724Z,85.62
2023-02-11T09:26:59.642Z,85.47
2023-02-11T09:29:33.790Z,85.21
2023-02-11T09:32:30.790Z,85.23
2023-02-11T09:35:03.934Z,84.78
2023-02-11T09:37:35.127Z,84.89
2023-02-11T09:43:27.548Z,84.70
2023-02-11T09:46:07.844Z,84.68
2023-02-11T09:48:51.112Z,85.00
2023-02-11T09:51:40.836Z,84.80
2023-02-11T09:54:27.846Z,84.47
2023-02-11T09:57:00.798Z,84.69
2023-02-11T09:59:36.013Z,84.70
2023-02-11T10:02:27.588Z,84.46
2023-02-11T10:04:57.454Z,84.34
2023-02-11T10:07:57.834Z,84.35
2023-02-11T10:10:51.113Z,84.01
2023-02-11T10:13:49.748Z,84.18
2023-02-11T10:17:03.801Z,83.89
2023-02-11T10:19:49.764Z,84.03
2023-02-11T10:22:31.780Z,83.70
2023-02-11T10:27:51.937Z,83.41
2023-02-11T10:31:10.397Z,83.38
2023-02-11T10:34:10.792Z,83.14
2023-02-11T10:36:45.183Z,83.31
2023-02-11T10:39:24.751Z,83.32
2023-02-11T10:42:24.060Z,83.28
2023-02-11T10:45:14.760Z,83.15
2023-02-11T10:47:55.812Z,82.85
2023-02-11T10:50:31.290Z,83.17
2023-02-11T10:53:42.842Z,82.77
2023-02-11T10:56:14.097Z,82.78
2023-02-11T10:59:30.877Z,82.50
2023-02-11T11:02:01.550Z,82.68
2023-02-11T11:04:38.866Z,82.44
2023-02-11T11:07:18.152Z,82.68
2023-02-11T11:09:55.875Z,82.48
2023-02-11T11:12:45.327Z,82.32
2023-02-11T11:15:29.039Z,81.97
2023-02-11T11:18:23.366Z,81.61
2023-02-11T11:21:14.808Z,81.93
2023-02-11T11:23:48.765Z,81.96
2023-02-11T11:26:27.085Z,81.92
2023-02-11T11:29:16.676Z,81.66
2023-02-11T11:32:06.025Z,81.83
2023-02-11T11:34:38.362Z,81.60
2023-02-11T11:40:25.480Z,81.34
2023-02-11T11:43:25.832Z,81.46
2023-02-11T11:46:00.545Z,81.51
2023-02-11T11:48:41.920Z,81.19
2023-02-11T11:51:36.084Z,81.39
2023-02-11T11:54:06.813Z,80.90
2023-02-11T11:57:29.247Z,81.32
2023-02-11T12:00:06.773Z,81.26
2023-02-11T12:03:19.883Z,80.90
2023-02-11T12:06:12.163Z,80.79
2023-02-11T12:09:30.823Z,80.70
2023-02-11T12:12:54.516Z,80.61
2023-02-11T12:15:38.832Z,80.71
2023-02-11T12:18:26.130Z,80.57
2023-02-11T12:21:09.902Z,80.18
2023-02-11T12:24:20.227Z,79.24
2023-02-11T12:27:14.052Z,79.06
2023-02-11T12:30:08.934Z,78.58
2023-02-11T12:33:02.846Z,77.36
2023-02-11T12:36:08.862Z,76.98
2023-02-11T12:39:19.844Z,77.48
2023-02-11T12:42:30.814Z,76.39
2023-02-11T12:45:29.267Z,75.71
2023-02-11T12:48:39.941Z,75.99
2023-02-11T12:51:31.823Z,75.69
2023-02-11T12:54:46.363Z,75.96
2023-02-11T12:57:32.784Z,75.46
2023-02-11T13:00:25.068Z,75.16
2023-02-11T13:03:43.155Z,75.02
2023-02-11T13:06:15.729Z,76.01
2023-02-11T13:09:02.851Z,75.62
2023-02-11T13:11:52.092Z,75.63
2023-02-11T13:14:35.853Z,75.31
2023-02-11T13:17:12.046Z,75.16
2023-02-11T13:19:56.953Z,74.86
2023-02-11T13:22:48.479Z,73.95
2023-02-11T13:26:13.194Z,74.10
2023-02-11T13:28:54.398Z,73.96
2023-02-11T13:31:28.080Z,73.09
2023-02-11T13:33:54.950Z,73.74
2023-02-11T13:36:32.994Z,73.52
2023-02-11T13:39:06.466Z,72.49
2023-02-11T13:41:43.742Z,72.65
2023-02-11T13:44:10.327Z,72.43
2023-02-11T13:47:08.894Z,72.43
2023-02-11T13:49:53.030Z,72.98
2023-02-11T13:52:37.890Z,73.15
2023-02-11T13:55:16.414Z,72.26
2023-02-11T13:57:52.345Z,72.24
2023-02-11T14:00:34.213Z,72.00
2023-02-11T14:03:45.074Z,70.82
2023-02-11T14:06:54.284Z,70.37
2023-02-11T14:09:29.990Z,70.68
2023-02-11T14:12:32.030Z,71.34
2023-02-11T14:15:20.812Z,71.69
2023-02-11T14:17:47.748Z,71.32
2023-02-11T14:20:50.255Z,71.34
2023-02-11T14:23:30.984Z,70.46
2023-02-11T14:26:31.928Z,70.17
2023-02-11T14:29:17.127Z,70.63
2023-02-11T14:31:58.185Z,71.14
2023-02-11T14:34:53.904Z,72.07
2023-02-11T14:38:17.913Z,71.68
2023-02-11T14:41:25.923Z,71.64
2023-02-11T14:43:57.940Z,71.83
2023-02-11T14:46:57.007Z,72.17
2023-02-11T14:49:42.733Z,72.30
2023-02-11T14:52:40.366Z,72.61
2023-02-11T14:55:33.352Z,72.52
2023-02-11T14:58:18.918Z,72.60
2023-02-11T15:00:50.516Z,72.72
2023-02-11T15:03:36.925Z,72.93
2023-02-11T15:06:08.215Z,73.06
2023-02-11T15:08:44.921Z,72.79
2023-02-11T15:11:14.520Z,72.74
2023-02-11T15:13:55.568Z,72.69
2023-02-11T15:16:28.700Z,72.90
2023-02-11T15:19:07.825Z,73.26
2023-02-11T15:21:36.379Z,73.02
2023-02-11T15:24:30.976Z,73.11
2023-02-11T15:27:04.957Z,73.08
2023-02-11T15:29:46.966Z,73.50
2023-02-11T15:32:29.976Z,73.53
2023-02-11T15:35:05.065Z,73.55
2023-02-11T15:37:31.934Z,73.58
2023-02-11T15:40:22.858Z,73.80
2023-02-11T15:43:00.409Z,73.86
2023-02-11T15:45:54.989Z,73.62
2023-02-11T15:48:37.885Z,73.74
2023-02-11T15:51:36.963Z,73.72
2023-02-11T15:54:23.935Z,74.15
2023-02-11T15:56:58.976Z,74.17
2023-02-11T15:59:41.962Z,74.31
2023-02-11T16:02:17.062Z,74.40
2023-02-11T16:04:59.941Z,74.47
2023-02-11T16:07:56.956Z,74.86
2023-02-11T16:10:35.569Z,74.75
2023-02-11T16:13:24.949Z,74.78
2023-02-11T16:16:17.191Z,75.13
2023-02-11T16:19:25.690Z,75.11
2023-02-11T16:22:01.920Z,75.17
2023-02-11T16:24:40.094Z,75.15
2023-02-11T16:27:29.930Z,75.06
2023-02-11T16:30:03.865Z,75.39
2023-02-11T16:32:31.223Z,75.75
2023-02-11T16:35:06.961Z,75.34
2023-02-11T16:37:41.970Z,75.75
2023-02-11T16:40:09.954Z,75.69
2023-02-11T16:42:42.933Z,75.64
2023-02-11T16:45:32.985Z,75.80
2023-02-11T16:48:15.046Z,75.99
2023-02-11T16:50:46.460Z,75.81
2023-02-11T16:53:23.960Z,76.22
2023-02-11T16:56:06.083Z,75.99
2023-02-11T16:58:40.958Z,76.10
2023-02-11T17:01:07.875Z,76.26
2023-02-11T17:03:47.973Z,76.29
2023-02-11T17:06:18.034Z,76.24
2023-02-11T17:08:50.967Z,76.65
2023-02-11T17:11:23.645Z,76.60
2023-02-11T17:13:56.972Z,76.61
2023-02-11T17:16:32.012Z,76.50
2023-02-11T17:18:58.876Z,76.77
2023-02-11T17:21:44.052Z,76.80
2023-02-11T17:24:11.478Z,76.85
2023-02-11T17:26:56.891Z,76.74
2023-02-11T17:29:28.278Z,76.95
2023-02-11T17:32:20.345Z,76.94
2023-02-11T17:34:47.086Z,77.05
2023-02-11T17:37:20.034Z,76.97
2023-02-11T17:39:46.672Z,77.01
2023-02-11T17:42:21.000Z,77.15
2023-02-11T17:44:47.729Z,77.30
2023-02-11T17:47:27.979Z,77.13
2023-02-11T17:49:54.627Z,77.06
2023-02-11T17:52:28.021Z,77.31
2023-02-11T17:55:02.034Z,77.20
2023-02-11T17:57:28.741Z,77.53
2023-02-11T18:00:02.462Z,77.74
2023-02-11T18:02:29.140Z,77.54
2023-02-11T18:05:04.022Z,77.97
2023-02-11T18:07:30.777Z,77.82
2023-02-11T18:10:03.932Z,77.67
2023-02-11T18:12:33.110Z,77.96
2023-02-11T18:15:06.026Z,77.67
2023-02-11T18:17:35.082Z,77.89
2023-02-11T18:20:14.405Z,77.92
2023-02-11T18:22:41.648Z,78.29
2023-02-11T18:25:20.295Z,78.01
2023-02-11T18:27:48.929Z,78.20
2023-02-11T18:30:25.194Z,78.38
2023-02-11T18:32:56.357Z,78.60
2023-02-11T18:35:30.278Z,78.68
2023-02-11T18:37:57.062Z,78.62
2023-02-11T18:40:23.812Z,78.41
2023-02-11T18:42:57.225Z,78.50
2023-02-11T18:45:31.531Z,78.75
2023-02-11T18:48:13.938Z,78.41
2023-02-11T18:50:53.946Z,78.72
2023-02-11T18:53:27.968Z,78.41
2023-02-11T18:55:55.171Z,78.57
2023-02-11T18:58:29.045Z,78.57
2023-02-11T19:01:02.234Z,78.53
2023-02-11T19:03:45.063Z,78.55
2023-02-11T19:06:17.564Z,78.79
2023-02-11T19:08:54.206Z,78.45
2023-02-11T19:11:41.805Z,78.86
2023-02-11T19:14:17.126Z,78.89
2023-02-11T19:16:47.732Z,78.71
2023-02-11T19:19:35.066Z,78.66
2023-02-11T19:22:21.239Z,78.78
2023-02-11T19:25:00.169Z,79.03
2023-02-11T19:27:35.778Z,79.00
2023-02-11T19:30:02.877Z,79.18
2023-02-11T19:32:37.031Z,79.09
2023-02-11T19:35:05.506Z,78.98
2023-02-11T19:37:39.038Z,78.94
2023-02-11T19:40:06.611Z,79.08
2023-02-11T19:42:40.048Z,78.94
2023-02-11T19:45:27.192Z,79.11
2023-02-11T19:48:04.112Z,79.14
2023-02-11T19:50:37.606Z,79.20
2023-02-11T19:53:11.105Z,79.07
2023-02-11T19:55:37.775Z,79.23
2023-02-11T19:58:11.178Z,79.32
2023-02-11T20:00:40.565Z,79.21
2023-02-11T20:03:14.034Z,79.32
2023-02-11T20:05:56.234Z,79.47
2023-02-11T20:08:22.969Z,79.31
2023-02-11T20:10:59.031Z,79.21
2023-02-11T20:13:25.742Z,79.50
2023-02-11T20:15:59.035Z,79.55
2023-02-11T20:18:32.089Z,79.40
2023-02-11T20:21:08.061Z,79.54
2023-02-11T20:23:35.548Z,79.56
2023-02-11T20:26:32.511Z,79.59
2023-02-11T20:29:09.044Z,79.87
2023-02-11T20:31:53.155Z,79.74
2023-02-11T20:34:21.405Z,80.03
2023-02-11T20:37:04.109Z,80.01
2023-02-11T20:39:31.077Z,79.78
2023-02-11T20:42:04.993Z,79.97
2023-02-11T20:44:32.029Z,79.95
2023-02-11T20:47:12.094Z,80.12
2023-02-11T20:49:38.766Z,79.91
2023-02-11T20:52:20.926Z,79.84
2023-02-11T20:57:31.133Z,79.94
2023-02-11T21:00:04.071Z,80.29
2023-02-11T21:02:30.691Z,80.06
2023-02-11T21:05:07.639Z,80.06
2023-02-11T21:07:39.100Z,80.25
2023-02-11T21:10:13.496Z,80.42
2023-02-11T21:12:42.353Z,80.43
2023-02-11T21:15:16.208Z,80.42
2023-02-11T21:17:45.391Z,80.26
2023-02-11T21:20:19.133Z,80.50
2023-02-11T21:22:45.791Z,80.33
2023-02-11T21:25:12.508Z,80.42
2023-02-11T21:27:49.427Z,80.42
2023-02-11T21:30:19.510Z,80.44
2023-02-11T21:32:56.204Z,80.55
2023-02-11T21:35:29.187Z,80.60
2023-02-11T21:38:03.081Z,80.63
2023-02-11T21:40:33.267Z,80.93
2023-02-11T21:43:06.126Z,80.86
2023-02-11T21:45:49.100Z,80.53
2023-02-11T21:48:30.126Z,80.75
2023-02-11T21:50:56.728Z,80.53
2023-02-11T21:53:32.764Z,80.59
2023-02-11T21:56:07.720Z,80.54
2023-02-11T21:58:51.708Z,80.96
2023-02-11T22:01:21.830Z,80.55
2023-02-11T22:04:20.387Z,80.70
2023-02-11T22:06:47.114Z,80.57
2023-02-11T22:09:13.824Z,80.59
2023-02-11T22:11:58.492Z,80.84
2023-02-11T22:14:32.499Z,81.03
2023-02-11T22:17:08.461Z,81.24
2023-02-11T22:19:42.152Z,81.23
2023-02-11T22:22:18.428Z,81.40
2023-02-11T22:24:55.116Z,81.53
2023-02-11T22:27:29.069Z,81.51
2023-02-11T22:29:55.791Z,81.30
2023-02-11T22:32:34.081Z,81.52
2023-02-11T22:35:00.687Z,81.43
2023-02-11T22:37:37.301Z,81.83
2023-02-11T22:40:04.855Z,82.11
2023-02-11T22:42:34.286Z,82.04
2023-02-11T22:45:07.204Z,81.67
2023-02-11T22:47:54.948Z,81.97
2023-02-11T22:50:22.607Z,82.20
2023-02-11T22:52:56.148Z,82.43
2023-02-11T22:55:24.100Z,82.41
2023-02-11T22:57:54.027Z,82.39
2023-02-11T23:00:31.244Z,82.35
2023-02-11T23:02:58.081Z,82.14
2023-02-11T23:05:31.424Z,82.16
2023-02-11T23:07:58.162Z,82.04
2023-02-11T23:10:34.211Z,82.54
2023-02-11T23:13:00.836Z,82.48
2023-02-11T23:15:38.181Z,82.42
2023-02-11T23:18:05.435Z,82.66
2023-02-11T23:20:41.086Z,82.50
2023-02-11T23:23:08.497Z,82.54
2023-02-11T23:25:49.097Z,82.66
2023-02-11T23:28:18.629Z,82.40
2023-02-11T23:30:59.141Z,82.50
2023-02-11T23:33:32.142Z,82.51
2023-02-11T23:36:00.632Z,82.78
2023-02-11T23:38:37.096Z,82.79
2023-02-11T23:41:13.690Z,82.75
2023-02-11T23:43:47.118Z,82.90
2023-02-11T23:46:22.540Z,82.81
2023-02-11T23:49:03.979Z,82.78
2023-02-11T23:51:38.115Z,83.03
2023-02-11T23:54:11.125Z,82.71
2023-02-11T23:56:52.616Z,82.84
2023-02-11T23:59:28.452Z,83.13
